Time;durP1;ratioP1;P1;durP2;ratioP2;P2;SDS_P1;SDS_P2;PMS_P1;PMS_P2;Temp;Humidity;BMP_temperature;BMP_pressure;BME280_temperature;BME280_humidity;BME280_pressure;Samples;Min_cycle;Max_cycle;Signal;HPM_P1;HPM_P2
2022/10/30 00:01:36;;;;;;;;;;;;;;;23.97;92.64;99078.44;5041436;28;19921;-50
2022/10/30 00:04:01;;;;;;;;;;;;;;;23.86;92.41;99073.25;5042392;28;19970;-47
2022/10/30 00:06:27;;;;;;;;;;;;;;;23.94;92.47;99075.22;5041841;28;19917;-47
2022/10/30 00:08:52;;;;;;;;;;;;;;;23.83;92.98;99073.50;5042047;28;20353;-48
2022/10/30 00:11:17;;;;;;;;;;;;;;;24.12;92.05;99068.34;5042257;28;20374;-48
2022/10/30 00:13:43;;;;;;;;;;;;;;;24.18;90.41;99067.81;5056693;28;19929;-47
2022/10/30 00:16:08;;;;;;;;;;;;;;;23.41;93.51;99072.72;5039249;28;19943;-47
2022/10/30 00:18:37;;;;;;;;;;;;;;;23.63;93.45;99076.97;5041629;28;19920;-48
2022/10/30 00:21:10;;;;;;;;;;;;;;;24.20;91.30;99071.16;5042643;28;19986;-48
2022/10/30 00:23:35;;;;;;;;;;;;;;;23.46;93.78;99070.53;5040498;28;19952;-49
2022/10/30 00:26:01;;;;;;;;;;;;;;;23.79;92.63;99066.88;5038444;28;20000;-49
2022/10/30 00:28:26;;;;;;;;;;;;;;;22.67;97.53;99074.34;5041260;28;19920;-47
2022/10/30 00:30:51;;;;;;;;;;;;;;;23.12;96.18;99078.59;5042006;28;19924;-47
2022/10/30 00:33:17;;;;;;;;;;;;;;;22.67;99.39;99082.22;5042033;28;19932;-50
2022/10/30 00:35:48;;;;;;;;;;;;;;;22.69;100.00;99076.81;5040395;28;19924;-47
2022/10/30 00:38:13;;;;;;;;;;;;;;;22.80;100.00;99089.91;5039689;28;19929;-50
2022/10/30 00:40:39;;;;;;;;;;;;;;;22.36;100.00;99081.22;5040131;28;19916;-47
2022/10/30 00:43:04;;;;;;;;;;;;;;;23.38;98.96;99079.88;5041870;28;19974;-47
2022/10/30 00:45:29;;;;;;;;;;;;;;;23.44;96.86;99072.44;5042674;28;19917;-48
2022/10/30 00:47:55;;;;;;;;;;;;;;;23.80;97.21;99074.59;5038758;28;19977;-48
2022/10/30 00:50:26;;;;;;;;;;;;;;;23.89;95.28;99061.63;5039659;28;19920;-50
2022/10/30 00:52:54;;;;;;;;;;;;;;;23.94;94.47;99069.97;5042085;28;19940;-47
2022/10/30 00:55:21;;;;;;;;;;;;;;;24.05;93.37;99072.50;5040962;28;20280;-47
2022/10/30 00:57:47;;;;;;;;;;;;;;;24.26;91.86;99071.59;5041010;28;20424;-48
2022/10/30 01:00:12;;;;;;;;;;;;;;;23.84;92.64;99079.63;5039003;28;19960;-48
2022/10/30 01:02:38;;;;;;;;;;;;;;;23.25;96.58;99095.00;5040825;28;20384;-48
2022/10/30 01:05:03;;;;;;;;;;;;;;;23.53;96.06;99082.19;5041520;28;19920;-47
2022/10/30 01:07:28;;;;;;;;;;;;;;;23.32;96.98;99080.41;5039188;28;19917;-47
2022/10/30 01:09:54;;;;;;;;;;;;;;;23.79;94.24;99080.84;5038783;28;19920;-47
2022/10/30 01:12:19;;;;;;;;;;;;;;;23.73;95.07;99083.94;5041791;28;19917;-47
2022/10/30 01:14:49;;;;;;;;;;;;;;;23.53;95.12;99077.75;5041564;28;20055;-49
2022/10/30 01:17:15;;;;;;;;;;;;;;;23.61;94.88;99079.75;5039922;28;20369;-47
2022/10/30 01:19:45;;;;;;;;;;;;;;;23.56;94.57;99074.03;5038674;28;19920;-49
2022/10/30 01:22:11;;;;;;;;;;;;;;;;;;5039672;28;19928;-47
2022/10/30 01:24:40;;;;;;;;;;;;;;;22.40;100.00;99090.50;5039728;28;19920;-49
2022/10/30 01:27:24;;;;;;;;;;;;;;;22.63;100.00;99087.84;5036793;28;19941;-47
2022/10/30 01:29:50;;;;;;;;;;;;;;;22.89;100.00;99078.66;5041162;28;19923;-48
2022/10/30 01:32:22;;;;;;;;;;;;;;;22.94;100.00;99081.75;5039138;28;20358;-48
2022/10/30 01:34:56;;;;;;;;;;;;;;;22.21;100.00;99082.38;5040309;28;19923;-49
2022/10/30 01:37:22;;;;;;;;;;;;;;;22.70;100.00;99089.00;5039098;28;19928;-47
2022/10/30 01:39:47;;;;;;;;;;;;;;;22.73;100.00;99086.13;5037965;28;19921;-46
2022/10/30 01:42:31;;;;;;;;;;;;;;;22.18;100.00;99082.63;5040327;28;19971;-47
2022/10/30 01:44:56;;;;;;;;;;;;;;;22.18;100.00;99082.63;5040180;28;19936;-48
2022/10/30 01:47:21;;;;;;;;;;;;;;;23.13;99.85;99070.59;5039577;28;19912;-47
2022/10/30 01:49:56;;;;;;;;;;;;;;;22.87;99.52;99072.69;5037558;28;19920;-48
2022/10/30 01:52:42;;;;;;;;;;;;;;;23.13;98.77;99069.78;5039599;28;19913;-48
2022/10/30 01:55:20;;;;;;;;;;;;;;;22.69;99.89;99071.56;5027195;28;19925;-47
2022/10/30 01:57:45;;;;;;;;;;;;;;;22.77;100.00;99070.00;5038903;28;19921;-48
2022/10/30 02:00:11;;;;;;;;;;;;;;;23.18;98.92;99067.59;5036408;28;19928;-48
2022/10/30 02:02:37;;;;;;;;;;;;;;;22.68;100.00;99075.16;5039444;28;19962;-47
2022/10/30 02:05:03;;;;;;;;;;;;;;;23.16;99.39;99069.50;5037357;28;19928;-48
2022/10/30 02:07:29;;;;;;;;;;;;;;;23.47;97.41;99066.91;5037223;28;19920;-47
2022/10/30 02:09:54;;;;;;;;;;;;;;;22.71;100.00;99074.91;5037440;28;20384;-49
2022/10/30 02:12:19;;;;;;;;;;;;;;;22.97;99.11;99062.28;5038077;28;20402;-47
2022/10/30 02:14:46;;;;;;;;;;;;;;;22.70;100.00;99073.25;5039448;28;19920;-47
2022/10/30 02:17:11;;;;;;;;;;;;;;;22.67;100.00;99078.72;5038006;28;19920;-48
2022/10/30 02:19:36;;;;;;;;;;;;;;;23.04;99.88;99065.28;5035456;28;20363;-47
2022/10/30 02:22:02;;;;;;;;;;;;;;;23.17;99.10;99065.91;5036809;28;19925;-47
2022/10/30 02:24:27;;;;;;;;;;;;;;;22.68;100.00;99076.00;5038848;28;20370;-47
2022/10/30 02:26:53;;;;;;;;;;;;;;;22.90;100.00;99069.84;5035305;28;19933;-48
2022/10/30 02:29:20;;;;;;;;;;;;;;;22.89;99.75;99083.91;5038248;28;19916;-47
2022/10/30 02:31:45;;;;;;;;;;;;;;;22.94;99.96;99067.78;5036497;28;19924;-47
2022/10/30 02:34:10;;;;;;;;;;;;;;;22.76;99.93;99068.34;5040242;28;19983;-49
2022/10/30 02:36:36;;;;;;;;;;;;;;;22.10;100.00;99078.84;5038752;28;19925;-49
2022/10/30 02:39:01;;;;;;;;;;;;;;;22.47;100.00;99083.81;5039322;28;19925;-47
2022/10/30 02:41:26;;;;;;;;;;;;;;;22.70;100.00;99068.00;5038829;28;19943;-47
2022/10/30 02:43:55;;;;;;;;;;;;;;;22.64;100.00;99068.50;5039096;28;19921;-47
2022/10/30 02:46:20;;;;;;;;;;;;;;;22.81;100.00;99064.47;5039639;28;19921;-48
2022/10/30 02:48:45;;;;;;;;;;;;;;;22.22;100.00;99078.84;5039031;28;19924;-46
2022/10/30 02:51:11;;;;;;;;;;;;;;;22.21;100.00;99077.13;5038627;28;19921;-47
2022/10/30 02:53:36;;;;;;;;;;;;;;;22.43;100.00;99077.13;5038721;28;19932;-47
2022/10/30 02:56:02;;;;;;;;;;;;;;;22.52;100.00;99070.31;5039151;28;19928;-46
2022/10/30 02:58:27;;;;;;;;;;;;;;;22.81;100.00;99067.09;5038264;28;20491;-48
2022/10/30 03:00:53;;;;;;;;;;;;;;;22.74;100.00;99064.19;5037381;28;19920;-46
2022/10/30 03:03:18;;;;;;;;;;;;;;;22.12;100.00;99079.53;5037275;28;19920;-47
2022/10/30 03:05:43;;;;;;;;;;;;;;;22.36;100.00;99075.97;5039188;28;19917;-47
2022/10/30 03:08:09;;;;;;;;;;;;;;;21.80;100.00;99078.56;5039906;28;20362;-47
2022/10/30 03:10:34;;;;;;;;;;;;;;;21.58;100.00;99095.13;5038484;28;20316;-47
2022/10/30 03:12:59;;;;;;;;;;;;;;;22.41;100.00;99089.53;5039037;28;19947;-50
2022/10/30 03:15:24;;;;;;;;;;;;;;;22.01;100.00;99092.66;5039101;28;20358;-47
2022/10/30 03:17:51;;;;;;;;;;;;;;;21.96;100.00;99089.53;5039145;28;19925;-50
2022/10/30 03:20:16;;;;;;;;;;;;;;;21.78;100.00;99089.19;5036375;28;20380;-47
2022/10/30 03:22:42;;;;;;;;;;;;;;;21.91;100.00;99082.03;5037063;28;20134;-47
2022/10/30 03:25:07;;;;;;;;;;;;;;;21.89;100.00;99088.34;5037402;28;19924;-47
2022/10/30 03:27:32;;;;;;;;;;;;;;;21.92;100.00;99099.44;5037658;28;19924;-48
2022/10/30 03:29:57;;;;;;;;;;;;;;;22.57;100.00;99083.06;5037774;28;19986;-47
2022/10/30 03:32:23;;;;;;;;;;;;;;;22.18;100.00;99099.19;5035628;28;19921;-47
2022/10/30 03:34:48;;;;;;;;;;;;;;;22.45;100.00;99100.63;5039461;28;19938;-47
2022/10/30 03:37:13;;;;;;;;;;;;;;;21.61;100.00;99106.19;5039226;28;20007;-47
2022/10/30 03:39:38;;;;;;;;;;;;;;;20.58;100.00;99107.69;5038797;28;20011;-47
2022/10/30 03:42:04;;;;;;;;;;;;;;;20.73;100.00;99117.03;5039261;28;20031;-48
2022/10/30 03:44:29;;;;;;;;;;;;;;;21.92;100.00;99101.25;5038300;28;20007;-47
2022/10/30 03:46:54;;;;;;;;;;;;;;;20.95;100.00;99098.00;5053746;28;19966;-46
2022/10/30 03:49:19;;;;;;;;;;;;;;;20.87;100.00;99097.75;5037224;28;19966;-46
2022/10/30 03:51:45;;;;;;;;;;;;;;;21.80;100.00;99096.94;5038813;28;19947;-46
2022/10/30 03:54:10;;;;;;;;;;;;;;;21.10;100.00;99090.81;5035705;28;19998;-49
2022/10/30 03:56:35;;;;;;;;;;;;;;;20.55;100.00;99113.09;5039220;28;19921;-49
2022/10/30 03:59:00;;;;;;;;;;;;;;;20.41;100.00;99106.22;5038378;28;19973;-47
2022/10/30 04:01:25;;;;;;;;;;;;;;;20.45;100.00;99102.47;5035832;28;20007;-46
2022/10/30 04:03:51;;;;;;;;;;;;;;;20.62;100.00;99101.28;5037611;28;19921;-49
2022/10/30 04:06:16;;;;;;;;;;;;;;;20.83;100.00;99099.72;5037962;28;20012;-49
2022/10/30 04:08:41;;;;;;;;;;;;;;;20.06;100.00;99110.38;5036037;28;20023;-47
2022/10/30 04:11:08;;;;;;;;;;;;;;;20.26;100.00;99116.00;5037943;28;19948;-49
2022/10/30 04:13:34;;;;;;;;;;;;;;;20.61;100.00;99112.69;5039484;28;19963;-48
2022/10/30 04:15:59;;;;;;;;;;;;;;;20.77;100.00;99100.16;5040814;28;19968;-47
2022/10/30 04:18:24;;;;;;;;;;;;;;;20.68;100.00;99100.84;5041042;28;20006;-48
2022/10/30 04:20:49;;;;;;;;;;;;;;;20.46;100.00;99118.06;5040810;28;19978;-49
2022/10/30 04:23:16;;;;;;;;;;;;;;;20.32;100.00;99115.59;5041466;28;19921;-47
2022/10/30 04:25:41;;;;;;;;;;;;;;;19.41;100.00;99113.91;5039843;28;19927;-47
2022/10/30 04:28:07;;;;;;;;;;;;;;;19.71;100.00;99104.16;5039820;28;19920;-48
2022/10/30 04:30:34;;;;;;;;;;;;;;;20.17;100.00;99106.19;5038136;28;19921;-47
2022/10/30 04:32:59;;;;;;;;;;;;;;;20.57;100.00;99098.16;5039563;28;19928;-48
2022/10/30 04:35:26;;;;;;;;;;;;;;;20.28;100.00;99098.44;5041877;28;19921;-50
2022/10/30 04:37:54;;;;;;;;;;;;;;;20.67;100.00;99100.00;5041464;28;19966;-50
2022/10/30 04:40:20;;;;;;;;;;;;;;;21.05;100.00;99093.78;5041830;28;19994;-48
2022/10/30 04:42:46;;;;;;;;;;;;;;;21.20;100.00;99094.41;5039477;28;20323;-46
2022/10/30 04:45:11;;;;;;;;;;;;;;;21.89;100.00;99090.97;5040820;28;19948;-46
2022/10/30 04:47:36;;;;;;;;;;;;;;;21.89;100.00;99075.25;5041101;28;20012;-47
2022/10/30 04:50:01;;;;;;;;;;;;;;;21.64;100.00;99081.53;5041947;28;20006;-47
2022/10/30 04:52:27;;;;;;;;;;;;;;;21.86;100.00;99072.88;5039725;28;19952;-48
2022/10/30 04:54:52;;;;;;;;;;;;;;;21.47;100.00;99086.28;5041114;28;20755;-46
2022/10/30 04:57:17;;;;;;;;;;;;;;;21.38;100.00;99086.13;5040197;28;20576;-46
2022/10/30 04:59:42;;;;;;;;;;;;;;;21.22;100.00;99079.41;5040851;28;20777;-47
2022/10/30 05:02:08;;;;;;;;;;;;;;;20.96;100.00;99093.59;5038201;28;20015;-47
2022/10/30 05:04:33;;;;;;;;;;;;;;;20.87;100.00;99088.09;5037626;28;19928;-47
2022/10/30 05:06:58;;;;;;;;;;;;;;;21.25;100.00;99083.56;5040548;28;19981;-46
2022/10/30 05:09:23;;;;;;;;;;;;;;;21.27;100.00;99087.75;5040822;28;19934;-47
2022/10/30 05:11:48;;;;;;;;;;;;;;;21.36;100.00;99096.72;5040141;28;19959;-47
2022/10/30 05:14:14;;;;;;;;;;;;;;;21.05;100.00;99103.38;5038435;28;20031;-46
2022/10/30 05:16:39;;;;;;;;;;;;;;;19.97;100.00;99123.25;5039608;28;19920;-47
2022/10/30 05:19:04;;;;;;;;;;;;;;;19.45;100.00;99122.34;5041096;28;19928;-47
2022/10/30 05:21:29;;;;;;;;;;;;;;;19.79;100.00;99122.72;5040034;28;19917;-48
2022/10/30 05:23:55;;;;;;;;;;;;;;;19.26;100.00;99129.75;5039507;28;20490;-48
2022/10/30 05:26:20;;;;;;;;;;;;;;;19.40;100.00;99127.88;5037231;28;19928;-48
2022/10/30 05:28:46;;;;;;;;;;;;;;;19.86;100.00;99121.38;5039946;28;19928;-48
2022/10/30 05:31:11;;;;;;;;;;;;;;;19.95;100.00;99115.50;5038500;28;20004;-46
2022/10/30 05:33:36;;;;;;;;;;;;;;;20.39;100.00;99111.59;5040226;28;20007;-48
2022/10/30 05:36:02;;;;;;;;;;;;;;;19.80;100.00;99119.19;5036111;28;20003;-47
2022/10/30 05:38:27;;;;;;;;;;;;;;;19.36;100.00;99118.59;5037481;28;20020;-46
2022/10/30 05:40:52;;;;;;;;;;;;;;;19.33;100.00;99125.78;5040431;28;19923;-47
2022/10/30 05:43:17;;;;;;;;;;;;;;;19.82;100.00;99107.69;5040467;28;19917;-46
2022/10/30 05:45:42;;;;;;;;;;;;;;;20.09;100.00;99108.50;5039443;28;19935;-47
2022/10/30 05:48:08;;;;;;;;;;;;;;;19.86;100.00;99108.31;5038642;28;19921;-46
2022/10/30 05:50:33;;;;;;;;;;;;;;;19.79;100.00;99107.06;5039495;28;20043;-47
2022/10/30 05:52:59;;;;;;;;;;;;;;;19.96;100.00;99111.97;5040375;28;19979;-47
2022/10/30 05:55:24;;;;;;;;;;;;;;;19.73;100.00;99120.53;5037131;28;20374;-47
2022/10/30 05:57:49;;;;;;;;;;;;;;;20.10;100.00;99126.69;5037960;28;19975;-46
2022/10/30 06:00:15;;;;;;;;;;;;;;;20.24;100.00;99125.75;5037850;28;19920;-47
2022/10/30 06:02:40;;;;;;;;;;;;;;;19.83;100.00;99134.66;5041116;28;19942;-48
2022/10/30 06:05:05;;;;;;;;;;;;;;;19.83;100.00;99134.66;5039205;28;19920;-47
2022/10/30 06:07:31;;;;;;;;;;;;;;;19.74;100.00;99130.06;5038848;28;19924;-48
2022/10/30 06:09:56;;;;;;;;;;;;;;;20.01;100.00;99122.09;5037321;28;19927;-49
2022/10/30 06:12:21;;;;;;;;;;;;;;;19.84;100.00;99125.84;5040219;28;19917;-47
2022/10/30 06:14:46;;;;;;;;;;;;;;;20.51;100.00;99119.50;5039777;28;19917;-49
2022/10/30 06:17:11;;;;;;;;;;;;;;;20.95;100.00;99115.50;5040017;28;19928;-47
2022/10/30 06:19:37;;;;;;;;;;;;;;;20.83;100.00;99118.06;5035512;28;20019;-47
2022/10/30 06:22:02;;;;;;;;;;;;;;;20.34;100.00;99133.75;5038284;28;20011;-46
2022/10/30 06:24:27;;;;;;;;;;;;;;;20.51;100.00;99127.38;5040244;28;19999;-47
2022/10/30 06:26:52;;;;;;;;;;;;;;;20.18;100.00;99128.78;5034722;28;20011;-47
2022/10/30 06:29:17;;;;;;;;;;;;;;;20.37;100.00;99131.78;5039020;28;20004;-46
2022/10/30 06:31:43;;;;;;;;;;;;;;;19.71;100.00;99131.09;5037596;28;20027;-49
2022/10/30 06:34:08;;;;;;;;;;;;;;;19.77;100.00;99129.84;5038519;28;20012;-48
2022/10/30 06:36:33;;;;;;;;;;;;;;;20.24;100.00;99120.50;5038395;28;20000;-48
2022/10/30 06:38:58;;;;;;;;;;;;;;;19.62;100.00;99113.41;5039325;28;20058;-48
2022/10/30 06:41:23;;;;;;;;;;;;;;;19.62;100.00;99126.47;5040673;28;19940;-50
2022/10/30 06:43:49;;;;;;;;;;;;;;;20.44;100.00;99117.31;5039389;28;19924;-49
2022/10/30 06:46:14;;;;;;;;;;;;;;;19.90;100.00;99117.59;5038658;28;19932;-48
2022/10/30 06:48:39;;;;;;;;;;;;;;;20.26;100.00;99110.78;5039803;28;19913;-49
2022/10/30 06:51:04;;;;;;;;;;;;;;;19.90;100.00;99109.78;5039952;28;19913;-48
2022/10/30 06:53:30;;;;;;;;;;;;;;;20.38;100.00;99109.91;5037962;28;19921;-48
2022/10/30 06:55:58;;;;;;;;;;;;;;;20.27;100.00;99108.06;5038843;28;19928;-49
2022/10/30 06:58:24;;;;;;;;;;;;;;;20.26;100.00;99116.00;5037851;28;19921;-47
2022/10/30 07:00:49;;;;;;;;;;;;;;;20.12;100.00;99113.53;5038871;28;19917;-46
2022/10/30 07:03:14;;;;;;;;;;;;;;;20.50;100.00;99102.13;5039015;28;19913;-47
2022/10/30 07:05:40;;;;;;;;;;;;;;;20.60;100.00;99093.56;5039227;28;19932;-47
2022/10/30 07:08:05;;;;;;;;;;;;;;;20.45;100.00;99100.66;5039335;28;19956;-46
2022/10/30 07:10:30;;;;;;;;;;;;;;;20.06;100.00;99105.16;5039027;28;19963;-48
2022/10/30 07:12:55;;;;;;;;;;;;;;;20.00;100.00;99107.34;5038485;28;19964;-47
2022/10/30 07:15:21;;;;;;;;;;;;;;;20.86;100.00;99093.44;5038908;28;19928;-47
2022/10/30 07:17:59;;;;;;;;;;;;;;;21.27;100.00;99079.88;5038042;28;19959;-46
2022/10/30 07:20:25;;;;;;;;;;;;;;;21.10;100.00;99085.56;5039297;28;19928;-49
2022/10/30 07:22:50;;;;;;;;;;;;;;;20.84;100.00;99090.91;5036411;28;19921;-47
2022/10/30 07:25:15;;;;;;;;;;;;;;;20.75;100.00;99096.81;5037159;28;20363;-47
2022/10/30 07:27:44;;;;;;;;;;;;;;;20.62;100.00;99098.69;5038556;28;20910;-46
2022/10/30 07:30:13;;;;;;;;;;;;;;;21.24;100.00;99089.78;5038860;28;19920;-49
2022/10/30 07:32:38;;;;;;;;;;;;;;;21.21;100.00;99082.13;5036485;28;20057;-48
2022/10/30 07:35:04;;;;;;;;;;;;;;;21.13;100.00;99090.56;5038354;28;19932;-47
2022/10/30 07:37:29;;;;;;;;;;;;;;;20.70;100.00;99083.25;5038993;28;19921;-47
2022/10/30 07:39:54;;;;;;;;;;;;;;;21.60;100.00;99080.97;5039088;28;19916;-47
2022/10/30 07:42:20;;;;;;;;;;;;;;;21.83;100.00;99084.44;5039024;28;19970;-46
2022/10/30 07:44:45;;;;;;;;;;;;;;;21.51;100.00;99084.28;5038243;28;19924;-46
2022/10/30 07:47:10;;;;;;;;;;;;;;;21.43;100.00;99089.25;5038220;28;19927;-47
2022/10/30 07:49:35;;;;;;;;;;;;;;;21.78;100.00;99088.34;5042638;28;20023;-46
2022/10/30 07:52:00;;;;;;;;;;;;;;;22.50;100.00;99083.56;5043045;28;20397;-46
2022/10/30 07:54:26;;;;;;;;;;;;;;;22.90;100.00;99080.34;5043558;28;20371;-47
2022/10/30 07:56:51;;;;;;;;;;;;;;;23.02;100.00;99082.94;5042433;28;20528;-48
2022/10/30 07:59:16;;;;;;;;;;;;;;;23.30;100.00;99089.38;5040294;28;20329;-49
2022/10/30 08:01:41;;;;;;;;;;;;;;;23.56;100.00;99092.44;5042467;28;19967;-50
2022/10/30 08:04:10;;;;;;;;;;;;;;;23.64;100.00;99099.69;5043067;28;19916;-47
2022/10/30 08:06:35;;;;;;;;;;;;;;;23.36;100.00;99107.25;5042552;28;19988;-48
2022/10/30 08:09:00;;;;;;;;;;;;;;;23.08;100.00;99119.19;5041220;28;19921;-47
2022/10/30 08:11:25;;;;;;;;;;;;;;;22.82;100.00;99124.75;5041852;28;19999;-48
2022/10/30 08:13:50;;;;;;;;;;;;;;;23.14;100.00;99116.09;5041344;28;20007;-48
2022/10/30 08:16:17;;;;;;;;;;;;;;;22.59;100.00;99131.03;5057989;28;20433;-47
2022/10/30 08:18:42;;;;;;;;;;;;;;;23.70;100.00;99114.94;5040458;28;20045;-49
2022/10/30 08:21:07;;;;;;;;;;;;;;;23.68;100.00;99125.59;5040610;28;19956;-48
2022/10/30 08:23:32;;;;;;;;;;;;;;;23.64;100.00;99121.53;5043449;28;19921;-48
2022/10/30 08:26:00;;;;;;;;;;;;;;;24.21;100.00;99125.44;5039771;28;20301;-47
2022/10/30 08:28:26;;;;;;;;;;;;;;;24.38;100.00;99125.78;5040679;28;20112;-47
2022/10/30 08:30:51;;;;;;;;;;;;;;;23.30;100.00;99132.25;5042010;28;20019;-51
2022/10/30 08:33:16;;;;;;;;;;;;;;;22.63;100.00;99135.09;5041500;28;19994;-47
2022/10/30 08:35:48;;;;;;;;;;;;;;;23.58;100.00;99116.78;5039858;28;20041;-49
2022/10/30 08:38:13;;;;;;;;;;;;;;;24.35;100.00;99110.25;5040603;28;19924;-50
2022/10/30 08:40:39;;;;;;;;;;;;;;;23.90;100.00;99110.63;5040641;28;19921;-50
2022/10/30 08:43:04;;;;;;;;;;;;;;;24.10;100.00;99106.28;5039775;28;19966;-47
2022/10/30 08:45:29;;;;;;;;;;;;;;;24.56;100.00;99097.03;5039592;28;19925;-49
2022/10/30 08:47:55;;;;;;;;;;;;;;;24.67;100.00;99104.81;5040300;28;19920;-48
2022/10/30 08:50:20;;;;;;;;;;;;;;;24.93;100.00;99094.59;5039267;28;19931;-44
2022/10/30 08:52:46;;;;;;;;;;;;;;;24.40;100.00;99110.69;5040024;28;19924;-43
2022/10/30 08:55:11;;;;;;;;;;;;;;;24.09;100.00;99105.47;5041242;28;19923;-43
2022/10/30 08:57:36;;;;;;;;;;;;;;;24.93;100.00;99089.31;5042229;28;19920;-43
2022/10/30 09:00:05;;;;;;;;;;;;;;;24.12;100.00;99105.19;5022592;28;19921;-44
2022/10/30 09:02:31;;;;;;;;;;;;;;;24.23;100.00;99100.81;5039705;28;20024;-44
2022/10/30 09:04:56;;;;;;;;;;;;;;;23.87;100.00;99100.38;5040930;28;19916;-44
2022/10/30 09:07:21;;;;;;;;;;;;;;;24.06;100.00;99110.16;5040928;28;20489;-44
2022/10/30 09:09:46;;;;;;;;;;;;;;;24.79;100.00;99097.59;5040791;28;20278;-43
2022/10/30 09:12:11;;;;;;;;;;;;;;;24.95;100.00;99094.44;5040353;28;20004;-44
2022/10/30 09:14:37;;;;;;;;;;;;;;;25.18;100.00;99097.59;5039342;28;19951;-44
2022/10/30 09:17:02;;;;;;;;;;;;;;;25.24;100.00;99094.44;5040819;28;20366;-43
2022/10/30 09:19:27;;;;;;;;;;;;;;;24.52;100.00;99107.00;5039365;28;20400;-44
2022/10/30 09:21:53;;;;;;;;;;;;;;;24.73;100.00;99099.00;5040376;28;20305;-44
2022/10/30 09:24:19;;;;;;;;;;;;;;;24.16;100.00;99109.22;5040131;28;19960;-44
2022/10/30 09:26:44;;;;;;;;;;;;;;;25.05;100.00;99093.47;5038043;28;19920;-43
2022/10/30 09:29:09;;;;;;;;;;;;;;;25.52;99.03;99087.50;5038919;28;19925;-43
2022/10/30 09:31:34;;;;;;;;;;;;;;;25.33;99.40;99087.50;5041289;28;19970;-43
2022/10/30 09:34:00;;;;;;;;;;;;;;;25.77;98.10;99085.16;5039250;28;19923;-43
2022/10/30 09:36:25;;;;;;;;;;;;;;;26.10;95.62;99081.19;5038091;28;19924;-43
2022/10/30 09:38:50;;;;;;;;;;;;;;;25.12;98.75;99092.91;5039133;28;20332;-44
2022/10/30 09:41:54;;;;;;;;;;;;;;;25.56;98.49;99086.19;5038723;28;20936;-44
2022/10/30 09:44:34;;;;;;;;;;;;;;;26.54;92.83;99083.16;5004089;28;20008;-43
2022/10/30 09:47:07;;;;;;;;;;;;;;;26.73;91.09;99085.72;5013059;28;19941;-44
2022/10/30 09:49:32;;;;;;;;;;;;;;;26.99;90.24;99083.13;5028728;28;19960;-44
2022/10/30 09:52:07;;;;;;;;;;;;;;;27.33;88.11;99077.97;5038911;28;20342;-43
2022/10/30 09:54:36;;;;;;;;;;;;;;;27.81;88.23;99074.97;5037638;28;20687;-44
2022/10/30 09:57:14;;;;;;;;;;;;;;;27.53;85.89;99072.50;5039454;28;19945;-43
2022/10/30 09:59:39;;;;;;;;;;;;;;;27.39;89.50;99081.81;5039784;28;19921;-44
2022/10/30 10:02:18;;;;;;;;;;;;;;;28.04;87.59;99068.13;5039322;28;19917;-43
2022/10/30 10:04:45;;;;;;;;;;;;;;;28.26;87.67;99066.75;5038907;28;19929;-44
2022/10/30 10:07:14;;;;;;;;;;;;;;;28.40;87.31;99062.63;5039694;28;19921;-44
2022/10/30 10:09:40;;;;;;;;;;;;;;;28.57;85.93;99055.56;5036592;28;19967;-44
2022/10/30 10:12:10;;;;;;;;;;;;;;;26.40;93.16;99073.94;5022729;28;19924;-44
2022/10/30 10:14:37;;;;;;;;;;;;;;;27.87;88.82;99053.16;5038701;28;19924;-44
2022/10/30 10:17:02;;;;;;;;;;;;;;;28.16;87.43;99058.09;5037295;28;20343;-44
2022/10/30 10:19:29;;;;;;;;;;;;;;;27.26;86.96;99045.19;5036378;28;20015;-44
2022/10/30 10:21:58;;;;;;;;;;;;;;;27.94;86.84;99048.91;5038352;28;20815;-43
2022/10/30 10:24:24;;;;;;;;;;;;;;;27.48;86.80;99043.88;5038100;28;20294;-44
2022/10/30 10:27:09;;;;;;;;;;;;;;;28.15;87.75;99044.03;5038908;28;19917;-44
2022/10/30 10:29:37;;;;;;;;;;;;;;;27.95;87.30;99051.38;5037414;28;19925;-43
2022/10/30 10:32:02;;;;;;;;;;;;;;;27.78;86.44;99044.34;5038538;28;20770;-44
2022/10/30 10:34:46;;;;;;;;;;;;;;;28.47;82.69;99039.81;5039767;28;19917;-44
2022/10/30 10:37:11;;;;;;;;;;;;;;;26.87;86.06;99042.06;5039519;28;19917;-44
2022/10/30 10:39:39;;;;;;;;;;;;;;;27.51;84.28;99030.31;5038174;28;20507;-44
2022/10/30 10:42:04;;;;;;;;;;;;;;;27.80;85.71;99031.75;5039588;28;20312;-44
2022/10/30 10:44:36;;;;;;;;;;;;;;;27.84;86.05;99033.16;5040080;28;19917;-44
2022/10/30 10:47:01;;;;;;;;;;;;;;;27.54;87.77;99037.09;5036249;28;19921;-44
2022/10/30 10:49:29;;;;;;;;;;;;;;;26.98;87.95;99031.25;5035639;28;20432;-43
2022/10/30 10:51:56;;;;;;;;;;;;;;;27.73;86.33;99022.81;5037194;28;20556;-44
2022/10/30 10:54:23;;;;;;;;;;;;;;;27.39;87.08;99018.31;5040358;28;20384;-43
2022/10/30 10:56:49;;;;;;;;;;;;;;;27.20;88.59;99024.66;5038369;28;20012;-43
2022/10/30 10:59:22;;;;;;;;;;;;;;;27.23;88.10;99012.94;5036548;28;20361;-44
2022/10/30 11:01:53;;;;;;;;;;;;;;;27.22;88.32;99006.00;5038158;28;20274;-44
2022/10/30 11:04:27;;;;;;;;;;;;;;;27.66;86.36;99006.72;5037449;28;19921;-44
2022/10/30 11:06:52;;;;;;;;;;;;;;;28.49;83.17;98994.63;5036742;28;19925;-44
2022/10/30 11:09:18;;;;;;;;;;;;;;;27.70;84.31;99004.59;5036915;28;20027;-44
2022/10/30 11:11:44;;;;;;;;;;;;;;;27.91;86.25;99005.03;5036270;28;19940;-44
2022/10/30 11:14:13;;;;;;;;;;;;;;;28.50;84.56;98991.81;5037095;28;19990;-44
2022/10/30 11:16:54;;;;;;;;;;;;;;;29.26;80.36;98991.63;5031596;28;20008;-44
2022/10/30 11:19:19;;;;;;;;;;;;;;;29.08;80.97;98994.47;5029251;28;19931;-44
2022/10/30 11:21:45;;;;;;;;;;;;;;;28.85;79.06;98983.69;5035753;28;19924;-44
2022/10/30 11:24:27;;;;;;;;;;;;;;;29.00;75.51;98974.06;5022809;28;20357;-44
2022/10/30 11:26:54;;;;;;;;;;;;;;;29.32;77.55;98985.63;5039534;28;19921;-44
2022/10/30 11:29:23;;;;;;;;;;;;;;;28.73;82.64;98986.66;5038119;28;19978;-44
2022/10/30 11:32:00;;;;;;;;;;;;;;;29.27;80.65;98990.63;5038930;28;19921;-44
2022/10/30 11:34:35;;;;;;;;;;;;;;;29.24;77.89;98988.31;5041786;28;19921;-44
2022/10/30 11:37:02;;;;;;;;;;;;;;;29.87;78.13;98981.31;5041400;28;19987;-44
2022/10/30 11:39:31;;;;;;;;;;;;;;;29.93;76.76;98984.09;5039185;28;19927;-44
2022/10/30 11:41:59;;;;;;;;;;;;;;;29.87;78.94;98984.78;5039176;28;19924;-44
2022/10/30 11:44:26;;;;;;;;;;;;;;;30.07;77.23;98979.06;5040568;28;19929;-45
2022/10/30 11:46:52;;;;;;;;;;;;;;;30.57;75.19;98980.41;5037412;28;19927;-44
2022/10/30 11:49:24;;;;;;;;;;;;;;;30.64;77.47;98991.97;5038348;28;20365;-44
2022/10/30 11:51:50;;;;;;;;;;;;;;;30.35;77.84;98988.19;5032321;28;20159;-44
2022/10/30 11:54:16;;;;;;;;;;;;;;;30.72;79.01;98989.22;5043381;28;19970;-45
2022/10/30 11:56:45;;;;;;;;;;;;;;;29.91;80.12;98987.94;5039151;28;19974;-44
2022/10/30 11:59:13;;;;;;;;;;;;;;;29.56;78.19;98985.56;5040171;28;19983;-44
2022/10/30 12:01:38;;;;;;;;;;;;;;;29.30;75.34;98983.16;5042719;28;19921;-44
2022/10/30 12:04:14;;;;;;;;;;;;;;;29.60;76.71;98989.53;5038363;28;20401;-43
2022/10/30 12:06:39;;;;;;;;;;;;;;;30.55;76.22;98979.75;5036877;28;20216;-44
2022/10/30 12:09:19;;;;;;;;;;;;;;;30.64;77.08;98981.34;5039859;28;20289;-44
2022/10/30 12:11:44;;;;;;;;;;;;;;;29.67;74.82;98978.22;5039439;28;19940;-44
2022/10/30 12:14:20;;;;;;;;;;;;;;;30.70;77.67;98982.44;5040212;28;20271;-44
2022/10/30 12:16:46;;;;;;;;;;;;;;;29.06;85.72;98997.28;5037946;28;19921;-44
2022/10/30 12:19:14;;;;;;;;;;;;;;;28.23;89.01;98998.19;5035992;28;20011;-44
2022/10/30 12:21:40;;;;;;;;;;;;;;;29.70;88.81;98992.03;5035002;28;20313;-47
2022/10/30 12:24:08;;;;;;;;;;;;;;;30.02;88.81;98984.91;5039488;28;20011;-44
2022/10/30 12:26:34;;;;;;;;;;;;;;;29.41;91.67;98997.88;5037881;28;19929;-44
2022/10/30 12:29:00;;;;;;;;;;;;;;;29.79;77.22;98963.63;5039501;28;19927;-44
2022/10/30 12:31:36;;;;;;;;;;;;;;;30.00;80.76;98971.78;5038207;28;20431;-44
2022/10/30 12:34:07;;;;;;;;;;;;;;;30.06;74.96;98967.63;5039797;28;19921;-44
2022/10/30 12:36:34;;;;;;;;;;;;;;;30.01;74.22;98965.47;5035705;28;20812;-44
2022/10/30 12:39:11;;;;;;;;;;;;;;;30.23;73.59;98963.00;5039564;28;19921;-44